Joyce, Louisiana
Current Conditions -  °F | °C
As of 7:35 AM on Friday 26 Dec 2014 (Local Time) from KIER Reporting Station
Overcast Overcast  
Wind Chill: 46°   Ceiling: 4600
Heat Index: 49°   Visibility: 10mi
Dew Point: 45°   Wind: 7mph
Humidity: 84%   Direction: 140°SE
Pressure: 30.14"   Gusts: NA
Location:  31.94°N, 92.6°W
Report Text: KIER 261335Z AUTO 14006KT 10SM OVC046 10/07 A3014 RMK AO2 T00950070
Loading
Personal Weather Stations






























Interactive Weather Map New forecast layout! Learn more

10-Day Weather Forecast

Advertisements
Track Severe Weather on mobile